Time,TemperatureF,DewpointF,PressureIn,WindDirection,WindDirectionDegrees,WindSpeedMPH,WindSpeedGustMPH,Humidity,HourlyPrecipIn,Conditions,Clouds,dailyrainin,SoftwareType,DateUTC
2013-06-12 00:03:00,82.0,64.0,29.53,SW,217,5.0,14.0,54,0.00,,,0.06,,2013-06-12 05:03:00,
2013-06-12 00:12:00,82.0,64.0,29.53,SW,217,5.0,14.0,54,0.00,,,0.06,,2013-06-12 05:12:00,
2013-06-12 00:22:00,82.0,63.0,29.51,SW,233,4.0,15.0,53,0.00,,,0.06,,2013-06-12 05:22:00,
2013-06-12 00:32:00,82.0,63.0,29.51,WSW,241,7.0,18.0,53,0.00,,,0.06,,2013-06-12 05:32:00,
2013-06-12 00:42:00,82.0,63.0,29.51,WSW,241,7.0,18.0,53,0.00,,,0.06,,2013-06-12 05:42:00,
2013-06-12 00:52:00,82.0,64.0,29.49,SW,220,6.0,18.0,54,0.00,,,0.06,,2013-06-12 05:52:00,
2013-06-12 01:02:00,81.0,63.0,29.49,SE,129,5.0,17.0,54,0.00,,,0.06,,2013-06-12 06:02:00,
2013-06-12 01:12:00,81.0,63.0,29.49,SE,129,5.0,17.0,54,0.00,,,0.06,,2013-06-12 06:12:00,
2013-06-12 01:22:00,81.0,63.0,29.50,SSE,156,7.0,17.0,55,0.00,,,0.06,,2013-06-12 06:22:00,
2013-06-12 01:32:00,81.0,63.0,29.50,South,174,6.0,17.0,55,0.00,,,0.06,,2013-06-12 06:32:00,
2013-06-12 01:42:00,81.0,63.0,29.50,South,174,6.0,17.0,55,0.00,,,0.06,,2013-06-12 06:42:00,
2013-06-12 01:52:00,80.0,63.0,29.53,SSW,208,4.0,23.0,56,0.00,,,0.06,,2013-06-12 06:52:00,
2013-06-12 02:02:00,80.0,62.0,29.53,South,182,2.0,7.0,54,0.00,,,0.06,,2013-06-12 07:02:00,
2013-06-12 02:12:00,80.0,62.0,29.53,South,182,2.0,7.0,54,0.00,,,0.06,,2013-06-12 07:12:00,
2013-06-12 02:22:00,80.0,61.0,29.52,South,178,3.0,9.0,53,0.00,,,0.06,,2013-06-12 07:22:00,
2013-06-12 02:33:00,81.0,62.0,29.52,SW,214,2.0,8.0,52,0.00,,,0.06,,2013-06-12 07:33:00,
2013-06-12 02:43:00,81.0,62.0,29.52,SW,214,2.0,8.0,52,0.00,,,0.06,,2013-06-12 07:43:00,
2013-06-12 02:53:00,80.0,62.0,29.53,South,173,2.0,7.0,54,0.00,,,0.06,,2013-06-12 07:53:00,
2013-06-12 03:02:00,78.0,62.0,29.54,South,186,1.0,11.0,57,0.00,,,0.06,,2013-06-12 08:02:00,
2013-06-12 03:12:00,78.0,62.0,29.54,South,186,1.0,11.0,57,0.00,,,0.06,,2013-06-12 08:12:00,
2013-06-12 03:22:00,78.0,62.0,29.54,South,169,0.0,7.0,59,0.00,,,0.06,,2013-06-12 08:22:00,
2013-06-12 03:33:00,77.0,63.0,29.55,SE,145,0.0,2.0,61,0.00,,,0.06,,2013-06-12 08:33:00,
2013-06-12 03:43:00,77.0,63.0,29.55,SE,145,0.0,2.0,61,0.00,,,0.06,,2013-06-12 08:43:00,
2013-06-12 03:53:00,75.0,62.0,29.55,SE,145,0.0,1.0,64,0.00,,,0.06,,2013-06-12 08:53:00,
2013-06-12 04:01:00,74.0,62.0,29.55,SE,145,0.0,0.0,67,0.00,,,0.06,,2013-06-12 09:01:00,
2013-06-12 04:11:00,74.0,62.0,29.55,SE,145,0.0,0.0,67,0.00,,,0.06,,2013-06-12 09:11:00,
2013-06-12 04:22:00,73.0,62.0,29.54,SE,146,0.0,2.0,68,0.00,,,0.06,,2013-06-12 09:22:00,
2013-06-12 04:33:00,72.0,62.0,29.54,SSE,160,0.0,2.0,70,0.00,,,0.06,,2013-06-12 09:33:00,
2013-06-12 04:42:00,72.0,62.0,29.54,SSE,160,0.0,2.0,70,0.00,,,0.06,,2013-06-12 09:42:00,
2013-06-12 04:53:00,71.0,61.0,29.54,SE,142,0.0,2.0,71,0.00,,,0.06,,2013-06-12 09:53:00,
2013-06-12 05:01:00,71.0,62.0,29.54,SE,142,0.0,3.0,73,0.00,,,0.06,,2013-06-12 10:01:00,
2013-06-12 05:11:00,71.0,62.0,29.54,SE,142,0.0,3.0,73,0.00,,,0.06,,2013-06-12 10:11:00,
2013-06-12 05:23:00,70.0,61.0,29.55,SE,142,0.0,1.0,74,0.00,,,0.06,,2013-06-12 10:23:00,
2013-06-12 05:33:00,70.0,61.0,29.54,SE,142,0.0,1.0,74,0.00,,,0.06,,2013-06-12 10:33:00,
2013-06-12 05:43:00,70.0,61.0,29.54,SE,142,0.0,1.0,74,0.00,,,0.06,,2013-06-12 10:43:00,
2013-06-12 05:53:00,69.0,61.0,29.56,SE,142,0.0,0.0,75,0.00,,,0.06,,2013-06-12 10:53:00,
2013-06-12 06:02:00,68.0,61.0,29.56,SE,142,0.0,0.0,78,0.00,,,0.06,,2013-06-12 11:02:00,
2013-06-12 06:12:00,68.0,61.0,29.56,SE,142,0.0,0.0,78,0.00,,,0.06,,2013-06-12 11:12:00,
2013-06-12 06:24:00,67.0,61.0,29.58,SE,142,0.0,2.0,80,0.00,,,0.06,,2013-06-12 11:24:00,
2013-06-12 06:33:00,67.0,61.0,29.58,SE,142,0.0,2.0,80,0.00,,,0.06,,2013-06-12 11:33:00,
2013-06-12 06:43:00,67.0,61.0,29.58,SE,142,0.0,2.0,80,0.00,,,0.06,,2013-06-12 11:43:00,
2013-06-12 06:53:00,67.0,61.0,29.59,SE,142,0.0,1.0,82,0.00,,,0.06,,2013-06-12 11:53:00,
2013-06-12 07:01:00,67.0,61.0,29.59,SE,142,0.0,0.0,82,0.00,,,0.06,,2013-06-12 12:01:00,
2013-06-12 07:11:00,67.0,61.0,29.59,SE,142,0.0,0.0,82,0.00,,,0.06,,2013-06-12 12:11:00,
2013-06-12 07:23:00,67.0,61.0,29.60,SW,227,1.0,3.0,82,0.00,,,0.06,,2013-06-12 12:23:00,
2013-06-12 07:33:00,68.0,62.0,29.61,SW,227,0.0,3.0,81,0.00,,,0.06,,2013-06-12 12:33:00,
2013-06-12 07:42:00,68.0,62.0,29.61,SW,227,0.0,3.0,81,0.00,,,0.06,,2013-06-12 12:42:00,
2013-06-12 07:53:00,69.0,63.0,29.61,SW,227,0.0,2.0,80,0.00,,,0.01,,2013-06-12 12:53:00,
2013-06-12 08:01:00,70.0,63.0,29.63,NNW,334,4.0,9.0,78,0.00,,,0.01,,2013-06-12 13:01:00,
2013-06-12 08:12:00,70.0,63.0,29.63,NNW,334,4.0,9.0,78,0.00,,,0.01,,2013-06-12 13:12:00,
2013-06-12 08:22:00,72.0,63.0,29.63,NNW,335,5.0,10.0,74,0.00,,,0.01,,2013-06-12 13:22:00,
2013-06-12 08:32:00,72.0,63.0,29.63,NNW,335,5.0,10.0,74,0.00,,,0.01,,2013-06-12 13:32:00,
2013-06-12 08:43:00,73.0,64.0,29.65,NNW,342,12.0,21.0,73,0.00,,,0.01,,2013-06-12 13:43:00,
2013-06-12 08:53:00,74.0,65.0,29.67,NW,324,10.0,22.0,74,0.00,,,0.00,,2013-06-12 13:53:00,
2013-06-12 09:02:00,75.0,66.0,29.67,NW,319,9.0,17.0,73,0.00,,,0.00,,2013-06-12 14:02:00,
2013-06-12 09:11:00,75.0,66.0,29.67,NW,319,9.0,17.0,73,0.00,,,0.00,,2013-06-12 14:11:00,
2013-06-12 09:24:00,75.0,66.0,29.67,NW,319,9.0,17.0,73,0.00,,,0.00,,2013-06-12 14:24:00,
2013-06-12 09:33:00,76.0,66.0,29.67,North,355,6.0,14.0,71,0.00,,,0.00,,2013-06-12 14:33:00,
2013-06-12 09:43:00,76.0,66.0,29.67,North,355,6.0,14.0,71,0.00,,,0.00,,2013-06-12 14:43:00,
2013-06-12 09:53:00,77.0,66.0,29.67,North,10,4.0,12.0,68,0.00,,,0.00,,2013-06-12 14:53:00,
2013-06-12 10:01:00,79.0,66.0,29.67,North,355,3.0,9.0,64,0.00,,,0.00,,2013-06-12 15:01:00,
2013-06-12 10:12:00,79.0,66.0,29.67,North,355,3.0,9.0,64,0.00,,,0.00,,2013-06-12 15:12:00,
2013-06-12 10:23:00,80.0,65.0,29.69,NW,323,7.0,15.0,60,0.00,,,0.00,,2013-06-12 15:23:00,
2013-06-12 10:33:00,80.0,65.0,29.69,NW,323,7.0,15.0,60,0.00,,,0.00,,2013-06-12 15:33:00,
2013-06-12 10:43:00,81.0,65.0,29.69,NNW,342,8.0,21.0,58,0.00,,,0.00,,2013-06-12 15:43:00,
2013-06-12 10:52:00,81.0,65.0,29.69,NNW,342,8.0,21.0,58,0.00,,,0.00,,2013-06-12 15:52:00,
2013-06-12 11:01:00,81.0,65.0,29.69,NNW,342,8.0,21.0,58,0.00,,,0.00,,2013-06-12 16:01:00,
2013-06-12 11:11:00,81.0,65.0,29.71,NNW,333,10.0,18.0,58,0.00,,,0.00,,2013-06-12 16:11:00,
2013-06-12 11:22:00,82.0,65.0,29.71,NNW,336,7.0,13.0,56,0.00,,,0.00,,2013-06-12 16:22:00,
2013-06-12 11:32:00,82.0,65.0,29.71,NNW,336,7.0,13.0,56,0.00,,,0.00,,2013-06-12 16:32:00,
2013-06-12 11:43:00,82.0,64.0,29.72,NNW,338,5.0,15.0,55,0.00,,,0.00,,2013-06-12 16:43:00,
2013-06-12 11:52:00,83.0,64.0,29.72,NNW,327,9.0,18.0,53,0.00,,,0.00,,2013-06-12 16:52:00,
2013-06-12 12:01:00,83.0,64.0,29.72,NNW,327,9.0,18.0,53,0.00,,,0.00,,2013-06-12 17:01:00,
2013-06-12 12:11:00,83.0,64.0,29.72,NNW,327,9.0,18.0,53,0.00,,,0.00,,2013-06-12 17:11:00,
2013-06-12 12:22:00,85.0,62.0,29.73,NNW,336,10.0,20.0,47,0.00,,,0.00,,2013-06-12 17:22:00,
2013-06-12 12:33:00,85.0,62.0,29.73,NNW,336,10.0,20.0,47,0.00,,,0.00,,2013-06-12 17:33:00,
2013-06-12 12:42:00,85.0,62.0,29.73,NW,317,9.0,17.0,46,0.00,,,0.00,,2013-06-12 17:42:00,
2013-06-12 12:52:00,85.0,62.0,29.73,NW,317,9.0,17.0,46,0.00,,,0.00,,2013-06-12 17:52:00,
2013-06-12 13:02:00,85.0,62.0,29.73,NW,317,9.0,17.0,46,0.00,,,0.00,,2013-06-12 18:02:00,
2013-06-12 13:12:00,87.0,60.0,29.74,NW,305,8.0,17.0,41,0.00,,,0.00,,2013-06-12 18:12:00,
2013-06-12 13:22:00,88.0,61.0,29.74,NW,325,9.0,17.0,41,0.00,,,0.00,,2013-06-12 18:22:00,
2013-06-12 13:32:00,88.0,61.0,29.74,NW,325,9.0,17.0,41,0.00,,,0.00,,2013-06-12 18:32:00,
2013-06-12 13:43:00,89.0,56.0,29.75,NW,317,9.0,24.0,33,0.00,,,0.00,,2013-06-12 18:43:00,
2013-06-12 13:53:00,89.0,56.0,29.75,NW,317,9.0,24.0,33,0.00,,,0.00,,2013-06-12 18:53:00,
2013-06-12 14:01:00,89.0,56.0,29.75,NW,317,9.0,24.0,33,0.00,,,0.00,,2013-06-12 19:01:00,
2013-06-12 14:11:00,88.0,58.0,29.77,North,350,9.0,18.0,36,0.00,,,0.00,,2013-06-12 19:11:00,
2013-06-12 14:22:00,88.0,58.0,29.77,NE,49,11.0,19.0,37,0.00,,,0.00,,2013-06-12 19:22:00,
2013-06-12 14:32:00,88.0,58.0,29.77,NE,49,11.0,19.0,37,0.00,,,0.00,,2013-06-12 19:32:00,
2013-06-12 14:42:00,88.0,59.0,29.77,NNW,332,8.0,16.0,38,0.00,,,0.00,,2013-06-12 19:42:00,
2013-06-12 14:52:00,88.0,59.0,29.77,NNW,342,7.0,16.0,38,0.00,,,0.00,,2013-06-12 19:52:00,
2013-06-12 15:01:00,88.0,59.0,29.77,NNW,342,7.0,16.0,38,0.00,,,0.00,,2013-06-12 20:01:00,
2013-06-12 15:11:00,87.0,58.0,29.78,NNE,24,10.0,22.0,38,0.00,,,0.00,,2013-06-12 20:11:00,
2013-06-12 15:21:00,87.0,58.0,29.78,NNE,24,10.0,22.0,38,0.00,,,0.00,,2013-06-12 20:21:00,
2013-06-12 15:32:00,87.0,58.0,29.78,NNE,24,10.0,22.0,38,0.00,,,0.00,,2013-06-12 20:32:00,
2013-06-12 15:42:00,87.0,59.0,29.79,NW,320,10.0,18.0,39,0.00,,,0.00,,2013-06-12 20:42:00,
2013-06-12 15:54:00,87.0,59.0,29.79,NW,320,10.0,18.0,39,0.00,,,0.00,,2013-06-12 20:54:00,
2013-06-12 16:01:00,87.0,59.0,29.79,NW,320,10.0,18.0,39,0.00,,,0.00,,2013-06-12 21:01:00,
2013-06-12 16:11:00,87.0,59.0,29.79,NW,320,10.0,18.0,39,0.00,,,0.00,,2013-06-12 21:11:00,
2013-06-12 16:22:00,87.0,58.0,29.79,NW,319,7.0,16.0,38,0.00,,,0.00,,2013-06-12 21:22:00,
2013-06-12 16:33:00,87.0,58.0,29.79,NW,319,7.0,16.0,38,0.00,,,0.00,,2013-06-12 21:33:00,
2013-06-12 16:43:00,87.0,58.0,29.79,NW,319,7.0,16.0,38,0.00,,,0.00,,2013-06-12 21:43:00,
2013-06-12 16:53:00,86.0,59.0,29.80,WNW,286,9.0,17.0,40,0.00,,,0.00,,2013-06-12 21:53:00,
2013-06-12 17:01:00,86.0,59.0,29.80,WNW,286,9.0,17.0,40,0.00,,,0.00,,2013-06-12 22:01:00,
2013-06-12 17:11:00,86.0,59.0,29.80,NW,317,8.0,18.0,40,0.00,,,0.00,,2013-06-12 22:11:00,
2013-06-12 17:22:00,85.0,59.0,29.80,NW,315,10.0,17.0,42,0.00,,,0.00,,2013-06-12 22:22:00,
2013-06-12 17:32:00,85.0,59.0,29.80,NW,315,10.0,17.0,42,0.00,,,0.00,,2013-06-12 22:32:00,
2013-06-12 17:43:00,84.0,58.0,29.81,North,11,7.0,17.0,42,0.00,,,0.00,,2013-06-12 22:43:00,
2013-06-12 17:52:00,84.0,58.0,29.81,NW,309,10.0,20.0,42,0.00,,,0.00,,2013-06-12 22:52:00,
2013-06-12 18:01:00,84.0,58.0,29.81,NW,309,10.0,20.0,42,0.00,,,0.00,,2013-06-12 23:01:00,
2013-06-12 18:12:00,84.0,59.0,29.82,NW,322,9.0,18.0,43,0.00,,,0.00,,2013-06-12 23:12:00,
2013-06-12 18:22:00,83.0,59.0,29.83,NNW,327,9.0,18.0,44,0.00,,,0.00,,2013-06-12 23:22:00,
2013-06-12 18:32:00,83.0,59.0,29.83,NNW,327,9.0,18.0,44,0.00,,,0.00,,2013-06-12 23:32:00,
2013-06-12 18:42:00,82.0,59.0,29.83,NNW,332,11.0,22.0,45,0.00,,,0.00,,2013-06-12 23:42:00,
2013-06-12 18:52:00,81.0,59.0,29.84,North,5,10.0,20.0,47,0.00,,,0.00,,2013-06-12 23:52:00,
2013-06-12 19:01:00,81.0,59.0,29.84,North,5,10.0,20.0,47,0.00,,,0.00,,2013-06-13 00:01:00,
2013-06-12 19:11:00,80.0,58.0,29.84,NNW,333,12.0,20.0,47,0.00,,,0.00,,2013-06-13 00:11:00,
2013-06-12 19:22:00,79.0,58.0,29.85,NE,40,8.0,21.0,48,0.00,,,0.00,,2013-06-13 00:22:00,
2013-06-12 19:32:00,79.0,58.0,29.85,NE,40,8.0,21.0,48,0.00,,,0.00,,2013-06-13 00:32:00,
2013-06-12 19:42:00,77.0,57.0,29.86,NNW,338,9.0,21.0,50,0.00,,,0.00,,2013-06-13 00:42:00,
2013-06-12 19:52:00,76.0,57.0,29.87,NNW,346,9.0,17.0,51,0.00,,,0.00,,2013-06-13 00:52:00,
2013-06-12 20:01:00,76.0,57.0,29.87,NNW,346,9.0,17.0,51,0.00,,,0.00,,2013-06-13 01:01:00,
2013-06-12 20:12:00,75.0,56.0,29.88,North,360,7.0,15.0,51,0.00,,,0.00,,2013-06-13 01:12:00,
2013-06-12 20:22:00,74.0,55.0,29.89,NW,325,9.0,16.0,51,0.00,,,0.00,,2013-06-13 01:22:00,
2013-06-12 20:32:00,74.0,55.0,29.89,NW,325,9.0,16.0,51,0.00,,,0.00,,2013-06-13 01:32:00,
2013-06-12 20:43:00,73.0,54.0,29.89,NNW,331,7.0,13.0,51,0.00,,,0.00,,2013-06-13 01:43:00,
2013-06-12 20:53:00,72.0,53.0,29.90,NNW,327,6.0,15.0,52,0.00,,,0.00,,2013-06-13 01:53:00,
2013-06-12 21:01:00,72.0,53.0,29.90,NNW,327,6.0,15.0,52,0.00,,,0.00,,2013-06-13 02:01:00,
2013-06-12 21:12:00,71.0,53.0,29.91,NW,325,6.0,15.0,53,0.00,,,0.00,,2013-06-13 02:12:00,
2013-06-12 21:22:00,71.0,53.0,29.91,NW,325,6.0,15.0,53,0.00,,,0.00,,2013-06-13 02:22:00,
2013-06-12 21:33:00,71.0,53.0,29.91,NW,325,6.0,15.0,53,0.00,,,0.00,,2013-06-13 02:33:00,
2013-06-12 21:43:00,70.0,53.0,29.92,NNW,338,5.0,9.0,55,0.00,,,0.00,,2013-06-13 02:43:00,
2013-06-12 21:52:00,69.0,53.0,29.93,NE,39,4.0,9.0,56,0.00,,,0.00,,2013-06-13 02:52:00,
2013-06-12 22:02:00,69.0,53.0,29.93,NE,39,4.0,9.0,56,0.00,,,0.00,,2013-06-13 03:02:00,
2013-06-12 22:12:00,69.0,53.0,29.94,NNW,338,4.0,10.0,57,0.00,,,0.00,,2013-06-13 03:12:00,
2013-06-12 22:22:00,68.0,53.0,29.95,NNW,331,4.0,8.0,58,0.00,,,0.00,,2013-06-13 03:22:00,
2013-06-12 22:33:00,68.0,53.0,29.95,NNW,331,4.0,8.0,58,0.00,,,0.00,,2013-06-13 03:33:00,
2013-06-12 22:42:00,67.0,52.0,29.96,NNE,27,4.0,13.0,59,0.00,,,0.00,,2013-06-13 03:42:00,
2013-06-12 22:52:00,67.0,54.0,29.98,NNW,344,6.0,12.0,62,0.00,,,0.00,,2013-06-13 03:52:00,
2013-06-12 23:01:00,67.0,54.0,29.98,NNW,344,6.0,12.0,62,0.00,,,0.00,,2013-06-13 04:01:00,
2013-06-12 23:11:00,66.0,53.0,29.99,NNW,348,4.0,9.0,64,0.00,,,0.00,,2013-06-13 04:11:00,
2013-06-12 23:22:00,65.0,53.0,29.99,NNW,348,4.0,12.0,66,0.00,,,0.00,,2013-06-13 04:22:00,
2013-06-12 23:32:00,65.0,53.0,29.99,NNW,348,4.0,12.0,66,0.00,,,0.00,,2013-06-13 04:32:00,
2013-06-12 23:43:00,64.0,54.0,30.00,NE,34,3.0,7.0,69,0.00,,,0.00,,2013-06-13 04:43:00,
2013-06-12 23:53:00,64.0,54.0,30.00,NW,320,4.0,9.0,69,0.00,,,0.00,,2013-06-13 04:53:00,